KCFD/CFD METAR and TAF weather

Enter ICAO airport designator
Station Type Date Time Source
KCFD METAR 2019/02/16 03:15 UTC NOAA

KCFD 160315Z AUTO 16004KT 10SM CLR 19/19 A2979 RMK AO2 T01870187


Station Type Date Time Source
KCFD Decoded METAR 2019/02/16 03:15 UTC NOAA

Station name not available
Feb 15, 2019 - 10:15 PM EST / 2019.02.16 0315 UTC
Wind: from the SSE (160 degrees) at 5 MPH (4 KT):0
Visibility: 10 mile(s):0
Sky conditions: clear
Temperature: 65.7 F (18.7 C)
Dew Point: 65.7 F (18.7 C)
Relative Humidity: 100%
Pressure (altimeter): 29.79 in. Hg (1008 hPa)
ob: KCFD 160315Z AUTO 16004KT 10SM CLR 19/19 A2979 RMK AO2 T01870187
cycle: 3

Station Type Date Time Source
KCFD TAF UTC NOAA

Error!


Example: see airport list